Flight Track Log - Related Links

Times and Time Zones

All times are in EDT time to prevent confusion due to time zone crossing. See the F-GSPR flight status page for this flight to view local times or setup timezone preferences in your user account.

Time Position Orientation Groundspeed Altitude Reporting Facility
EDT Latitude Longitude Course Direction KTS MPH feet Rate Location/Type
Sun 05:08:04 AM 48.9985 2.6050 86° East 189 217 600  Level FlightAware ADS-B
Sun 05:08:20 AM 48.9996 2.6260 85° East 190 219 1,300 2,545 Climbing FlightAware ADS-B
Sun 05:08:37 AM 49.0009 2.6497 85° East 192 221 2,000 2,545 Climbing FlightAware ADS-B
Sun 05:08:53 AM 49.0020 2.6701 85° East 189 217 2,700 2,323 Climbing FlightAware ADS-B
Sun 05:09:08 AM 49.0029 2.6902 86° East 192 221 3,200 2,000 Climbing FlightAware ADS-B
Sun 05:09:23 AM 49.0039 2.7109 86° East 197 227 3,700 1,355 Climbing FlightAware ADS-B
Sun 05:09:39 AM 49.0052 2.7336 85° East 214 246 3,900 968 Climbing FlightAware ADS-B
Sun 05:09:54 AM 49.0066 2.7574 85° East 231 266 4,200 1,778 Climbing FlightAware ADS-B
Sun 05:10:06 AM 49.0074 2.7775 87° East 235 270 4,700 1,895 Climbing FlightAware ADS-B
Sun 05:10:13 AM 49.0075 2.7897 89° East 246 283 4,800 923 Climbing FlightAware ADS-B
Sun 05:10:19 AM 49.0068 2.8005 96° East 255 293 4,900 1,800 Climbing FlightAware ADS-B
Sun 05:10:33 AM 49.0036 2.8253 101° East 263 303 5,400 2,100 Climbing FlightAware ADS-B
Sun 05:10:39 AM 49.0017 2.8359 105° East 267 307 5,600 2,000 Climbing FlightAware ADS-B
Sun 05:10:45 AM 48.9989 2.8463 113° Southeast 269 310 5,800 2,769 Climbing FlightAware ADS-B
Sun 05:10:52 AM 48.9940 2.8578 123° Southeast 270 311 6,200 3,273 Climbing FlightAware ADS-B
Sun 05:10:56 AM 48.9907 2.8633 132° Southeast 268 308 6,400 3,231 Climbing FlightAware ADS-B
Sun 05:11:05 AM 48.9820 2.8735 143° Southeast 264 304 6,900 3,500 Climbing FlightAware ADS-B
Sun 05:11:08 AM 48.9785 2.8762 153° Southeast 265 305 7,100 1,946 Climbing FlightAware ADS-B
Sun 05:11:42 AM 48.9440 2.8840 172° South 277 319 8,100 1,889 Climbing FlightAware ADS-B
Sun 05:12:02 AM 48.9200 2.8760 192° South 283 326 8,800 2,229 Climbing FlightAware ADS-B
Sun 05:12:17 AM 48.9050 2.8580 218° Southwest 282 325 9,400 3,250 Climbing FlightAware ADS-B
Sun 05:12:26 AM 48.8947 2.8289 242° Southwest 288 331 10,100 2,400 Climbing FlightAware ADS-B
Sun 05:12:42 AM 48.8879 2.7987 251° West 304 350 10,400 1,143 Climbing FlightAware ADS-B
Sun 05:13:08 AM 48.8767 2.7437 253° West 326 375 10,900 1,071 Climbing FlightAware ADS-B
Sun 05:13:38 AM 48.8622 2.6748 252° West 350 403 11,400 1,100 Climbing FlightAware ADS-B
Sun 05:14:08 AM 48.8466 2.6025 252° West 371 427 12,000 1,475 Climbing FlightAware ADS-B
Sun 05:14:39 AM 48.8298 2.5263 252° West 381 438 12,900 1,967 Climbing FlightAware ADS-B
Sun 05:15:09 AM 48.8129 2.4488 252° West 383 441 14,000 2,250 Climbing FlightAware ADS-B
Sun 05:15:19 AM 48.8079 2.4232 253° West 385 443 14,400 2,222 Climbing FlightAware ADS-B
Sun 05:15:36 AM 48.8026 2.3775 260° West 390 449 15,000 1,875 Climbing FlightAware ADS-B
Sun 05:15:51 AM 48.8009 2.3375 266° West 393 452 15,400 1,733 Climbing FlightAware ADS-B
Sun 05:16:21 AM 48.8007 2.2533 270° West 402 463 16,300 1,672 Climbing FlightAware ADS-B
Sun 05:16:52 AM 48.8012 2.1658 271° West 410 472 17,100 -245 Climbing FlightAware ADS-B
Sun 05:17:10 AM 48.7998 2.1109 271° West 1 1 16,100 1,667 Descending FlightAware UK
Sun 05:17:28 AM 48.8016 2.0609 271° West 416 479 18,100 3,429 Climbing FlightAware ADS-B
Sun 05:17:59 AM 48.8015 1.9707 270° West 422 486 18,900 -375 Climbing FlightAware ADS-B
Sun 05:18:16 AM 48.8022 1.9199 270° West 414 476 17,800 1,636 Descending FlightAware UK
Sun 05:18:32 AM 48.8014 1.8712 270° West 426 490 19,800 1,714 Climbing FlightAware ADS-B
Sun 05:18:58 AM 48.8021 1.7949 270° West 424 488 19,000 1,636 Descending FlightAware UK
Sun 05:19:05 AM 48.8010 1.7725 270° West 428 493 20,700 1,600 Climbing FlightAware ADS-B
Sun 05:19:28 AM 48.8010 1.7041 270° West 426 490 19,800 1,500 Descending FlightAware UK
Sun 05:19:45 AM 48.8005 1.6525 270° West 431 496 21,700 1,333 Climbing FlightAware ADS-B
Sun 05:20:04 AM 48.7999 1.5939 270° West 428 493 20,600 -977 Descending FlightAware UK
Sun 05:20:28 AM 48.7996 1.5203 270° West 430 495 21,000 3,455 Climbing FlightAware UK
Sun 05:20:37 AM 48.8000 1.5270 270° West 441 507 22,500 1,250 Climbing FlightAware ADS-B
Sun 05:20:52 AM 48.7989 1.4449 270° West 432 497 21,500 -1,455 Descending FlightAware UK
Sun 05:21:10 AM 48.7988 1.3889 270° West 440 506 21,700 4,080 Climbing FlightAware UK
Sun 05:21:17 AM 48.7990 1.3990 270° West 453 521 23,200 1,600 Climbing FlightAware ADS-B
Sun 05:21:40 AM 48.7988 1.2931 270° West 442 509 22,500 1,200 Descending FlightAware UK
Sun 05:22:07 AM 48.7980 1.2430 270° West 461 531 24,200 857 Climbing FlightAware ADS-B
Sun 05:22:22 AM 48.7977 1.1582 270° West 448 516 23,100 -1,455 Descending FlightAware UK
Sun 05:22:40 AM 48.7972 1.0989 269° West 450 518 23,400 4,560 Climbing FlightAware UK
Sun 05:22:47 AM 48.7950 1.0790 269° West 471 542 25,000 750 Climbing FlightAware ADS-B
Sun 05:23:04 AM 48.7878 1.0196 269° West 452 520 23,700 800 Descending FlightAware UK
Sun 05:23:17 AM 48.7780 0.9820 269° West 480 552 25,400 1,000 Climbing FlightAware ADS-B
Sun 05:23:34 AM 48.7567 0.9312 269° West 458 527 24,200 1,050 Descending FlightAware UK
Sun 05:23:57 AM 48.7320 0.8740 269° West 485 558 26,100 1,000 Climbing FlightAware ADS-B
Sun 05:24:22 AM 48.6977 0.7945 269° West 468 539 25,000 1,050 Descending FlightAware UK
Sun 05:24:37 AM 48.6840 0.7580 269° West 488 562 26,800 1,000 Climbing FlightAware ADS-B
Sun 05:24:52 AM 48.6632 0.7078 269° West 468 539 25,500 800 Descending FlightAware UK
Sun 05:25:22 AM 48.6290 0.6290 269° West 497 572 27,400 894 Climbing FlightAware ADS-B
Sun 05:25:39 AM 48.6015 0.5706 269° West 472 543 26,200 -1,714 Descending FlightAware UK
Sun 05:25:57 AM 48.5772 0.5197 234° Southwest 478 550 26,400 4,696 Climbing FlightAware UK
Sun 05:26:02 AM 48.5740 0.5120 234° Southwest 505 581 28,000 833 Climbing FlightAware ADS-B
Sun 05:26:33 AM 48.5278 0.4159 234° Southwest 480 552 26,900 800 Descending FlightAware UK
Sun 05:26:47 AM 48.5130 0.3840 234° Southwest 511 588 28,600 2,556 Climbing FlightAware ADS-B
Sun 05:27:27 AM 48.4570 0.2680 234° Southwest 517 595 29,200 -724 Climbing FlightAware ADS-B
Sun 05:27:45 AM 48.4278 0.2085 234° Southwest 486 559 27,900 600 Descending FlightAware UK
Sun 05:28:07 AM 48.4010 0.1530 234° Southwest 524 603 29,600 714 Climbing FlightAware ADS-B
Sun 05:28:27 AM 48.3682 0.0857 234° Southwest 494 568 28,400 1,050 Descending FlightAware UK
Sun 05:28:47 AM 48.3470 0.0420 234° Southwest 525 604 30,300 1,500 Climbing FlightAware ADS-B
Sun 05:28:51 AM 48.3338 0.0153 234° Southwest 492 566 29,000 -4,125 Descending FlightAware UK
Sun 05:29:03 AM 48.3166 -0.0202 234° Southwest 490 564 29,200 2,927 Climbing FlightAware UK
Sun 05:29:32 AM 48.2770 -0.1020 234° Southwest 521 600 31,000 1,459 Climbing FlightAware ADS-B
Sun 05:30:17 AM 48.2110 -0.2230 231° Southwest 520 598 31,000  Level FlightAware ADS-B
Sun 05:30:57 AM 48.1490 -0.3310 229° Southwest 519 597 31,000  Level FlightAware ADS-B
Sun 05:31:37 AM 48.0850 -0.4410 229° Southwest 519 597 31,000  Level FlightAware ADS-B
Sun 05:32:22 AM 48.0130 -0.5660 229° Southwest 521 600 31,000  Level FlightAware ADS-B
Sun 05:33:02 AM 47.9510 -0.6750 230° Southwest 522 601 31,000  Level FlightAware ADS-B
Sun 05:33:47 AM 47.8800 -0.7970 229° Southwest 523 602 31,000  Level FlightAware ADS-B
Sun 05:34:22 AM 47.8230 -0.8950 229° Southwest 525 604 31,000  Level FlightAware ADS-B
Sun 05:35:02 AM 47.7620 -0.9990 229° Southwest 526 605 31,000  Level FlightAware ADS-B
Sun 05:35:47 AM 47.6900 -1.1220 229° Southwest 526 605 31,000  Level FlightAware ADS-B
Sun 05:36:27 AM 47.6260 -1.2300 229° Southwest 525 604 31,000  Level FlightAware ADS-B
Sun 05:37:12 AM 47.5520 -1.3560 229° Southwest 526 605 31,000  Level FlightAware ADS-B
Sun 05:37:52 AM 47.4870 -1.4650 229° Southwest 528 608 31,000  Level FlightAware ADS-B
Sun 05:38:32 AM 47.4240 -1.5700 228° Southwest 530 610 31,000  Level FlightAware ADS-B
Sun 05:39:17 AM 47.3530 -1.6900 229° Southwest 525 604 31,000  Level FlightAware ADS-B
Sun 05:39:57 AM 47.2880 -1.7970 228° Southwest 524 603 31,000  Level FlightAware ADS-B
Sun 05:40:42 AM 47.2140 -1.9190 228° Southwest 524 603 31,000  Level FlightAware ADS-B
Sun 05:41:22 AM 47.1490 -2.0260 228° Southwest 524 603 31,000  Level FlightAware ADS-B
Sun 05:42:02 AM 47.0860 -2.1310 229° Southwest 526 605 31,000  Level FlightAware ADS-B
Sun 05:42:47 AM 47.0140 -2.2470 228° Southwest 530 610 31,000  Level FlightAware ADS-B
Sun 05:43:27 AM 46.9480 -2.3540 228° Southwest 533 613 31,000  Level FlightAware ADS-B
Sun 05:44:07 AM 46.8820 -2.4610 228° Southwest 535 616 31,000  Level FlightAware ADS-B
Sun 05:44:52 AM 46.8060 -2.5850 228° Southwest 538 619 31,000  Level FlightAware ADS-B
Sun 05:45:32 AM 46.7400 -2.6890 227° Southwest 542 624 31,000  Level FlightAware ADS-B
Sun 05:46:17 AM 46.6630 -2.8140 228° Southwest 547 629 31,000  Level FlightAware ADS-B
Sun 05:46:57 AM 46.5980 -2.9160 227° Southwest 545 627 31,000  Level FlightAware ADS-B
Sun 05:47:42 AM 46.5230 -3.0360 228° Southwest 545 627 31,000  Level FlightAware ADS-B
Sun 05:48:12 AM 46.4720 -3.1160 227° Southwest 547 629 31,000  Level FlightAware ADS-B
Sun 05:49:52 AM 46.3060 -3.3780 228° Southwest 548 631 31,000  Level FlightAware ADS-B
Sun 05:50:47 AM 46.2090 -3.5280 227° Southwest 547 629 31,000  Level FlightAware ADS-B
Sun 05:51:57 AM 46.0880 -3.7170 227° Southwest 546 628 31,000  Level FlightAware ADS-B
Sun 05:52:37 AM 46.0780 -3.7310 224° Southwest 546 628 31,000  Level FlightAware ADS-B
Sun 05:53:17 AM 46.0190 -3.8220 227° Southwest 546 628 31,000  Level FlightAware ADS-B
Sun 05:54:07 AM 45.9460 -3.9350 227° Southwest 546 628 31,000  Level FlightAware ADS-B
Sun 05:54:47 AM 45.8880 -4.0250 227° Southwest 546 628 31,000  Level FlightAware ADS-B
Sun 05:55:27 AM 45.8290 -4.1150 227° Southwest 546 628 31,000  Level FlightAware ADS-B
Sun 05:56:07 AM 45.7700 -4.2050 227° Southwest 546 628 31,000  Level FlightAware ADS-B
Sun 05:56:47 AM 45.7120 -4.2950 227° Southwest 546 628 31,000  Level FlightAware ADS-B
Sun 05:57:27 AM 45.6530 -4.3850 227° Southwest 546 628 31,000  Level FlightAware ADS-B
Sun 05:58:17 AM 45.5800 -4.4970 227° Southwest 546 628 31,000  Level FlightAware ADS-B
Sun 05:58:57 AM 45.5210 -4.5870 227° Southwest 546 628 31,000  Level FlightAware ADS-B
Sun 05:59:37 AM 45.4630 -4.6770 227° Southwest 546 628 31,000  Level FlightAware ADS-B
Sun 06:00:17 AM 45.4040 -4.7660 227° Southwest 546 628 31,000  Level FlightAware ADS-B
Sun 06:01:07 AM 45.3310 -4.8780 227° Southwest 546 628 31,000  Level FlightAware ADS-B
Sun 06:01:47 AM 45.2720 -4.9670 227° Southwest 546 628 31,000  Level FlightAware ADS-B
Sun 06:04:00 AM 45.0504 -5.2151 218° Southwest  Level Estimated
Sun 06:04:47 AM 44.7170 -5.7530 218° Southwest 564 649 31,000  Level FlightAware ADS-B
Sun 06:05:22 AM 44.6550 -5.8430 226° Southwest 564 649 31,000  Level FlightAware ADS-B
Sun 06:06:07 AM 44.5740 -5.9670 228° Southwest 565 650 31,000 494 Level FlightAware ADS-B
Sun 06:06:47 AM 44.5120 -6.0650 228° Southwest 561 646 31,700 1,129 Climbing FlightAware ADS-B
Sun 06:07:32 AM 44.4270 -6.1980 228° Southwest 561 646 32,600 867 Climbing FlightAware ADS-B
Sun 06:08:17 AM 44.3490 -6.3190 228° Southwest 566 651 33,000 267 Climbing FlightAware ADS-B
Sun 06:09:02 AM 44.2720 -6.4370 228° Southwest 566 651 33,000  Level FlightAware ADS-B
Sun 06:09:42 AM 44.1990 -6.5480 227° Southwest 564 649 33,000  Level FlightAware ADS-B
Sun 06:10:22 AM 44.1300 -6.6540 228° Southwest 563 648 33,000  Level FlightAware ADS-B
Sun 06:11:07 AM 44.0490 -6.7750 227° Southwest 563 648 33,000  Level FlightAware ADS-B
Sun 06:11:47 AM 43.9800 -6.8790 227° Southwest 563 648 33,000  Level FlightAware ADS-B
Sun 06:12:32 AM 43.9030 -6.9960 228° Southwest 564 649 33,000  Level FlightAware ADS-B
Sun 06:14:07 AM 43.7360 -7.2460 227° Southwest 564 649 33,000  Level FlightAware ADS-B
Sun 06:14:52 AM 43.6550 -7.3660 227° Southwest 563 648 33,000  Level FlightAware ADS-B
Sun 06:15:32 AM 43.5810 -7.4750 227° Southwest 562 647 33,000  Level FlightAware ADS-B
Sun 06:16:12 AM 43.5310 -7.5490 227° Southwest 560 644 33,000  Level FlightAware ADS-B
Sun 06:16:57 AM 43.4370 -7.6870 227° Southwest 558 642 33,000  Level FlightAware ADS-B
Sun 06:18:32 AM 43.2680 -7.9340 227° Southwest 556 640 33,000  Level FlightAware ADS-B
Sun 06:19:17 AM 43.1890 -8.0490 227° Southwest 556 640 33,000  Level FlightAware ADS-B
Sun 06:19:57 AM 43.1130 -8.1590 227° Southwest 556 640 33,000  Level FlightAware ADS-B
Sun 06:20:42 AM 43.0550 -8.2420 226° Southwest 553 636 33,000  Level FlightAware ADS-B
Sun 06:21:22 AM 42.9660 -8.3690 226° Southwest 555 639 33,000  Level FlightAware ADS-B
Sun 06:21:57 AM 42.8940 -8.4550 221° Southwest 560 644 33,000  Level FlightAware ADS-B
Sun 06:22:42 AM 42.7990 -8.5470 215° Southwest 560 644 33,000  Level FlightAware ADS-B
Sun 06:23:17 AM 42.7360 -8.6070 215° Southwest 560 644 33,000  Level FlightAware ADS-B
Sun 06:24:07 AM 42.6240 -8.7130 215° Southwest 561 646 33,000  Level FlightAware ADS-B
Sun 06:24:52 AM 42.5480 -8.7840 215° Southwest 564 649 33,000  Level FlightAware ADS-B
Sun 06:25:27 AM 42.4700 -8.8580 215° Southwest 563 648 33,000  Level FlightAware ADS-B
Sun 06:26:17 AM 42.3670 -8.9540 215° Southwest 562 647 33,000  Level FlightAware ADS-B
Sun 06:26:57 AM 42.2780 -9.0360 214° Southwest 562 647 33,000  Level FlightAware ADS-B
Sun 06:27:52 AM 42.1650 -9.1420 215° Southwest 560 644 33,000  Level FlightAware ADS-B
Sun 06:28:37 AM 42.0630 -9.2360 214° Southwest 559 643 33,000  Level FlightAware ADS-B
Sun 06:29:17 AM 41.9830 -9.3090 214° Southwest 560 644 33,000  Level FlightAware ADS-B
Sun 06:29:57 AM 41.8990 -9.3870 215° Southwest 561 646 33,000  Level FlightAware ADS-B
Sun 06:30:42 AM 41.7920 -9.4860 215° Southwest 559 643 33,000  Level FlightAware ADS-B
Sun 06:31:22 AM 41.7090 -9.5640 215° Southwest 555 639 33,000  Level FlightAware ADS-B
Sun 06:31:57 AM 41.6350 -9.6330 215° Southwest 553 636 33,000  Level FlightAware ADS-B
Sun 06:32:47 AM 41.5360 -9.7240 215° Southwest 551 634 33,000  Level FlightAware ADS-B
Sun 06:33:27 AM 41.4450 -9.8080 215° Southwest 549 632 33,000  Level FlightAware ADS-B
Sun 06:34:12 AM 41.3580 -9.8880 215° Southwest 548 631 33,000  Level FlightAware ADS-B
Sun 06:34:47 AM 41.2800 -9.9590 214° Southwest 547 629 33,000  Level FlightAware ADS-B
Sun 06:35:37 AM 41.1850 -10.0450 214° Southwest 548 631 33,000  Level FlightAware ADS-B
Sun 06:36:12 AM 41.1190 -10.1040 214° Southwest 548 631 33,000  Level FlightAware ADS-B
Sun 06:37:02 AM 40.9890 -10.2230 215° Southwest 545 627 33,000  Level FlightAware ADS-B
Sun 06:37:57 AM 40.8730 -10.3280 214° Southwest 547 629 33,000  Level FlightAware ADS-B
Sun 06:38:52 AM 40.7640 -10.4250 214° Southwest 547 629 33,000  Level FlightAware ADS-B
Sun 06:39:42 AM 40.6750 -10.5050 214° Southwest 547 629 33,000  Level FlightAware ADS-B
Sun 06:40:22 AM 40.6030 -10.5680 214° Southwest 547 629 33,000  Level FlightAware ADS-B
Sun 06:41:02 AM 40.5320 -10.6310 214° Southwest 547 629 33,000  Level FlightAware ADS-B
Sun 06:41:42 AM 40.4610 -10.6950 214° Southwest 547 629 33,000  Level FlightAware ADS-B
Sun 06:42:32 AM 40.3710 -10.7740 214° Southwest 547 629 33,000  Level FlightAware ADS-B
Sun 06:43:12 AM 40.3000 -10.8370 214° Southwest 547 629 33,000  Level FlightAware ADS-B
Sun 06:43:52 AM 40.2290 -10.9000 214° Southwest 547 629 33,000  Level FlightAware ADS-B
Sun 06:44:32 AM 40.1570 -10.9630 214° Southwest 547 629 33,000  Level FlightAware ADS-B
Sun 06:45:22 AM 40.0680 -11.0410 214° Southwest 547 629 33,000  Level FlightAware ADS-B
Sun 06:46:02 AM 39.9970 -11.1040 214° Southwest 547 629 33,000  Level FlightAware ADS-B
Sun 06:46:42 AM 39.9260 -11.1670 214° Southwest 547 629 33,000  Level FlightAware ADS-B
Sun 06:47:22 AM 39.8540 -11.2300 214° Southwest 547 629 33,000  Level FlightAware ADS-B
Sun 06:48:02 AM 39.7830 -11.2920 214° Southwest 547 629 33,000  Level FlightAware ADS-B
Sun 06:50:00 AM 39.5750 -11.4734 214° Southwest  Level Estimated
Sun 06:51:00 AM 39.4692 -11.5653 214° Southwest  Level Estimated
Sun 06:52:00 AM 39.3633 -11.6569 214° Southwest  Level Estimated
Sun 06:53:00 AM 39.2573 -11.7482 214° Southwest  Level Estimated
Sun 06:54:00 AM 39.1512 -11.8392 214° Southwest  Level Estimated
Sun 06:55:00 AM 39.0450 -11.9299 214° Southwest  Level Estimated
Sun 06:56:00 AM 38.9388 -12.0204 214° Southwest  Level Estimated
Sun 06:57:00 AM 38.8326 -12.1106 213° Southwest  Level Estimated
Sun 06:58:00 AM 38.7262 -12.2005 213° Southwest  Level Estimated
Sun 06:59:00 AM 38.6198 -12.2902 213° Southwest  Level Estimated
Sun 07:00:00 AM 38.5133 -12.3796 213° Southwest  Level Estimated
Sun 07:01:00 AM 38.4067 -12.4687 213° Southwest  Level Estimated
Sun 07:02:00 AM 38.3001 -12.5576 213° Southwest  Level Estimated
Sun 07:03:00 AM 38.1934 -12.6462 213° Southwest  Level Estimated
Sun 07:04:00 AM 38.0867 -12.7345 213° Southwest  Level Estimated
Sun 07:05:00 AM 37.9799 -12.8226 213° Southwest  Level Estimated
Sun 07:06:00 AM 37.8730 -12.9104 213° Southwest  Level Estimated
Sun 07:07:00 AM 37.7660 -12.9980 213° Southwest  Level Estimated
Sun 07:08:00 AM 37.6590 -13.0854 213° Southwest  Level Estimated
Sun 07:09:00 AM 37.5519 -13.1724 213° Southwest  Level Estimated
Sun 07:10:00 AM 37.4448 -13.2592 213° Southwest  Level Estimated
Sun 07:11:00 AM 37.3376 -13.3458 213° Southwest  Level Estimated
Sun 07:12:00 AM 37.2303 -13.4321 213° Southwest  Level Estimated
Sun 07:13:00 AM 37.1230 -13.5182 213° Southwest  Level Estimated
Sun 07:14:00 AM 37.0156 -13.6041 213° Southwest  Level Estimated
Sun 07:15:00 AM 36.9081 -13.6897 213° Southwest  Level Estimated
Sun 07:16:00 AM 36.8006 -13.7750 212° Southwest  Level Estimated
Sun 07:17:00 AM 36.6930 -13.8602 212° Southwest  Level Estimated
Sun 07:18:00 AM 36.5854 -13.9450 212° Southwest  Level Estimated
Sun 07:19:00 AM 36.4777 -14.0297 212° Southwest  Level Estimated
Sun 07:20:00 AM 36.3699 -14.1141 212° Southwest  Level Estimated
Sun 07:21:00 AM 36.2621 -14.1982 212° Southwest  Level Estimated
Sun 07:22:00 AM 36.1542 -14.2822 212° Southwest  Level Estimated
Sun 07:23:00 AM 36.0463 -14.3659 212° Southwest  Level Estimated
Sun 07:24:00 AM 35.9383 -14.4494 212° Southwest  Level Estimated
Sun 07:25:00 AM 35.8303 -14.5326 212° Southwest  Level Estimated
Sun 07:26:00 AM 35.7221 -14.6157 212° Southwest  Level Estimated
Sun 07:27:00 AM 35.6140 -14.6985 212° Southwest  Level Estimated
Sun 07:28:00 AM 35.5058 -14.7810 212° Southwest  Level Estimated
Sun 07:29:00 AM 35.3975 -14.8634 212° Southwest  Level Estimated
Sun 07:30:00 AM 35.2892 -14.9455 212° Southwest  Level Estimated
Sun 07:31:00 AM 35.1808 -15.0275 212° Southwest  Level Estimated
Sun 07:32:00 AM 35.0723 -15.1092 212° Southwest  Level Estimated
Sun 07:32:57 AM 34.0880 -15.7760 212° Southwest 502 578 33,000  Level FlightAware ADS-B
Sun 07:33:00 AM 34.9638 -15.1906 212° Southwest  Level Estimated
Sun 07:33:37 AM 34.0080 -15.8340 211° Southwest 499 574 33,000  Level FlightAware ADS-B
Sun 07:34:17 AM 33.9280 -15.8910 211° Southwest 496 571 33,000  Level FlightAware ADS-B
Sun 07:35:02 AM 33.8380 -15.9560 211° Southwest 495 570 33,000  Level FlightAware ADS-B
Sun 07:35:42 AM 33.7580 -16.0130 211° Southwest 495 570 33,000  Level FlightAware ADS-B
Sun 07:36:22 AM 33.6820 -16.0680 211° Southwest 493 567 33,000  Level FlightAware ADS-B
Sun 07:37:07 AM 33.5920 -16.1320 211° Southwest 492 566 33,000  Level FlightAware ADS-B
Sun 07:37:47 AM 33.5140 -16.1870 210° Southwest 490 564 33,000  Level FlightAware ADS-B
Sun 07:38:32 AM 33.4250 -16.2500 211° Southwest 493 567 33,000  Level FlightAware ADS-B
Sun 07:39:12 AM 33.3500 -16.3030 211° Southwest 493 567 33,000  Level FlightAware ADS-B
Sun 07:39:52 AM 33.2710 -16.3590 211° Southwest 496 571 33,000  Level FlightAware ADS-B
Sun 07:40:32 AM 33.1930 -16.4140 211° Southwest 498 573 33,000  Level FlightAware ADS-B
Sun 07:41:17 AM 33.1000 -16.4800 211° Southwest 499 574 33,000  Level FlightAware ADS-B
Sun 07:41:57 AM 33.0200 -16.5360 210° Southwest 499 574 33,000  Level FlightAware ADS-B
Sun 07:42:42 AM 32.9330 -16.5970 210° Southwest 498 573 33,000  Level FlightAware ADS-B
Sun 07:43:22 AM 32.8520 -16.6530 210° Southwest 498 573 33,000  Level FlightAware ADS-B
Sun 07:44:07 AM 32.7640 -16.7150 211° Southwest 497 572 33,000  Level FlightAware ADS-B
Sun 07:44:47 AM 32.6860 -16.7690 210° Southwest 496 571 33,000  Level FlightAware ADS-B
Sun 07:45:27 AM 32.6050 -16.8250 210° Southwest 495 570 33,000  Level FlightAware ADS-B
Sun 07:46:12 AM 32.5140 -16.8880 210° Southwest 491 565 33,000  Level FlightAware ADS-B
Sun 07:46:52 AM 32.4370 -16.9420 211° Southwest 493 567 33,000  Level FlightAware ADS-B
Sun 07:47:37 AM 32.3500 -17.0020 210° Southwest 491 565 33,000  Level FlightAware ADS-B
Sun 07:48:17 AM 32.2730 -17.0540 210° Southwest 492 566 33,000  Level FlightAware ADS-B
Sun 07:48:57 AM 32.1920 -17.1100 210° Southwest 494 568 33,000  Level FlightAware ADS-B
Sun 07:49:42 AM 32.1000 -17.1730 210° Southwest 494 568 33,000  Level FlightAware ADS-B
Sun 07:50:22 AM 32.0220 -17.2260 210° Southwest 492 566 33,000  Level FlightAware ADS-B
Sun 07:51:07 AM 31.9380 -17.2830 210° Southwest 491 565 33,000  Level FlightAware ADS-B
Sun 07:51:47 AM 31.8710 -17.3290 210° Southwest 491 565 33,000  Level FlightAware ADS-B
Sun 07:52:27 AM 31.8040 -17.3740 210° Southwest 491 565 33,000  Level FlightAware ADS-B
Sun 07:53:07 AM 31.7380 -17.4200 211° Southwest 491 565 33,000  Level FlightAware ADS-B
Sun 07:53:47 AM 31.6710 -17.4650 210° Southwest 491 565 33,000  Level FlightAware ADS-B
Sun 07:54:37 AM 31.5870 -17.5220 210° Southwest 491 565 33,000  Level FlightAware ADS-B
Sun 07:55:17 AM 31.5200 -17.5670 210° Southwest 491 565 33,000  Level FlightAware ADS-B
Sun 07:55:57 AM 31.4530 -17.6120 210° Southwest 491 565 33,000  Level FlightAware ADS-B
Sun 07:56:47 AM 31.3700 -17.6690 210° Southwest 491 565 33,000  Level FlightAware ADS-B
Sun 07:57:27 AM 31.3030 -17.7140 210° Southwest 491 565 33,000  Level FlightAware ADS-B
Sun 07:58:07 AM 31.1430 -17.8720 220° Southwest 485 558 33,000  Level FlightAware ADS-B
Sun 07:58:47 AM 31.0790 -17.9210 213° Southwest 485 558 33,000  Level FlightAware ADS-B
Sun 07:59:32 AM 30.9780 -17.9980 213° Southwest 483 556 33,000  Level FlightAware ADS-B
Sun 08:00:17 AM 30.8940 -18.0620 213° Southwest 483 556 33,000  Level FlightAware ADS-B
Sun 08:00:52 AM 30.8340 -18.1070 213° Southwest 482 555 33,000  Level FlightAware ADS-B
Sun 08:01:37 AM 30.7560 -18.1660 213° Southwest 482 555 33,000  Level FlightAware ADS-B
Sun 08:02:17 AM 30.6710 -18.2310 213° Southwest 483 556 33,000  Level FlightAware ADS-B
Sun 08:03:02 AM 30.5950 -18.2880 213° Southwest 483 556 33,000  Level FlightAware ADS-B
Sun 08:03:42 AM 30.5310 -18.3360 213° Southwest 483 556 33,000  Level FlightAware ADS-B
Sun 08:04:22 AM 30.4370 -18.4070 213° Southwest 484 557 33,000  Level FlightAware ADS-B
Sun 08:05:07 AM 30.3560 -18.4670 213° Southwest 484 557 33,000  Level FlightAware ADS-B
Sun 08:05:52 AM 30.2640 -18.5360 213° Southwest 484 557 33,000  Level FlightAware ADS-B
Sun 08:06:32 AM 30.1880 -18.5920 212° Southwest 482 555 33,000  Level FlightAware ADS-B
Sun 08:07:17 AM 30.1080 -18.6520 213° Southwest 486 559 33,000  Level FlightAware ADS-B
Sun 08:07:57 AM 30.0290 -18.7110 213° Southwest 486 559 33,000  Level FlightAware ADS-B
Sun 08:08:37 AM 29.9520 -18.7680 213° Southwest 486 559 33,000  Level FlightAware ADS-B
Sun 08:09:22 AM 29.8670 -18.8310 213° Southwest 482 555 33,000  Level FlightAware ADS-B
Sun 08:09:57 AM 29.8030 -18.8790 213° Southwest 481 554 33,000  Level FlightAware ADS-B
Sun 08:10:42 AM 29.7270 -18.9330 212° Southwest 481 554 33,000  Level FlightAware ADS-B
Sun 08:11:22 AM 29.6630 -18.9790 212° Southwest 481 554 33,000  Level FlightAware ADS-B
Sun 08:12:02 AM 29.5990 -19.0250 212° Southwest 481 554 33,000  Level FlightAware ADS-B
Sun 08:12:52 AM 29.5190 -19.0830 212° Southwest 481 554 33,000  Level FlightAware ADS-B
Sun 08:13:32 AM 29.4550 -19.1290 212° Southwest 481 554 33,000  Level FlightAware ADS-B
Sun 08:14:12 AM 29.3900 -19.1750 212° Southwest 481 554 33,000  Level FlightAware ADS-B
Sun 08:14:52 AM 29.3260 -19.2210 212° Southwest 481 554 33,000  Level FlightAware ADS-B
Sun 08:15:32 AM 29.2620 -19.2670 212° Southwest 481 554 33,000  Level FlightAware ADS-B
Sun 08:16:22 AM 29.1820 -19.3240 212° Southwest 481 554 33,000  Level FlightAware ADS-B
Sun 08:17:02 AM 29.1180 -19.3700 212° Southwest 481 554 33,000  Level FlightAware ADS-B
Sun 08:17:42 AM 29.0540 -19.4160 212° Southwest 481 554 33,000  Level FlightAware ADS-B
Sun 08:18:22 AM 28.9890 -19.4620 212° Southwest 481 554 33,000  Level FlightAware ADS-B
Sun 08:19:02 AM 28.9250 -19.5080 212° Southwest 481 554 33,000  Level FlightAware ADS-B
Sun 08:19:52 AM 28.8450 -19.5650 212° Southwest 481 554 33,000 15 Level FlightAware ADS-B
Sun 08:22:00 AM 28.6109 -19.7140 209° Southwest  Level Estimated
Sun 08:23:00 AM 28.5011 -19.7836 209° Southwest  Level Estimated
Sun 08:24:00 AM 28.3912 -19.8530 209° Southwest  Level Estimated
Sun 08:25:00 AM 28.2814 -19.9223 209° Southwest  Level Estimated
Sun 08:26:00 AM 28.1714 -19.9915 209° Southwest  Level Estimated
Sun 08:27:00 AM 28.0615 -20.0605 209° Southwest  Level Estimated
Sun 08:28:00 AM 27.9515 -20.1294 209° Southwest  Level Estimated
Sun 08:29:00 AM 27.8415 -20.1981 209° Southwest  Level Estimated
Sun 08:30:00 AM 27.7315 -20.2667 209° Southwest  Level Estimated
Sun 08:31:00 AM 27.6214 -20.3352 209° Southwest  Level Estimated
Sun 08:32:00 AM 27.5113 -20.4035 209° Southwest  Level Estimated
Sun 08:33:00 AM 27.4011 -20.4717 209° Southwest  Level Estimated
Sun 08:34:00 AM 27.2910 -20.5398 209° Southwest  Level Estimated
Sun 08:35:00 AM 27.1807 -20.6077 209° Southwest  Level Estimated
Sun 08:36:00 AM 27.0705 -20.6755 209° Southwest  Level Estimated
Sun 08:37:00 AM 26.9602 -20.7431 209° Southwest  Level Estimated
Sun 08:38:00 AM 26.8499 -20.8106 209° Southwest  Level Estimated
Sun 08:39:00 AM 26.7396 -20.8780 209° Southwest  Level Estimated
Sun 08:40:00 AM 26.6292 -20.9453 209° Southwest  Level Estimated
Sun 08:41:00 AM 26.5188 -21.0124 209° Southwest  Level Estimated
Sun 08:42:00 AM 26.4084 -21.0794 209° Southwest  Level Estimated
Sun 08:43:00 AM 26.2979 -21.1463 208° Southwest  Level Estimated
Sun 08:44:00 AM 26.1874 -21.2130 208° Southwest  Level Estimated
Sun 08:45:00 AM 26.0769 -21.2796 208° Southwest  Level Estimated
Sun 08:46:00 AM 25.9663 -21.3461 208° Southwest  Level Estimated
Sun 08:47:00 AM 25.8557 -21.4125 208° Southwest  Level Estimated
Sun 08:48:00 AM 25.7451 -21.4788 208° Southwest  Level Estimated
Sun 08:49:00 AM 25.6344 -21.5449 208° Southwest  Level Estimated
Sun 08:50:00 AM 25.5238 -21.6109 208° Southwest  Level Estimated
Sun 08:51:00 AM 25.4130 -21.6767 208° Southwest  Level Estimated
Sun 08:52:00 AM 25.3023 -21.7425 208° Southwest  Level Estimated
Sun 08:53:00 AM 25.1915 -21.8081 208° Southwest  Level Estimated
Sun 08:54:00 AM 25.0807 -21.8736 208° Southwest  Level Estimated
Sun 08:55:00 AM 24.9699 -21.9390 208° Southwest  Level Estimated
Sun 08:56:00 AM 24.8591 -22.0043 208° Southwest  Level Estimated
Sun 08:57:00 AM 24.7482 -22.0695 208° Southwest  Level Estimated
Sun 08:58:00 AM 24.6373 -22.1345 208° Southwest  Level Estimated
Sun 08:59:00 AM 24.5263 -22.1994 208° Southwest  Level Estimated
Sun 09:00:00 AM 24.4154 -22.2643 208° Southwest  Level Estimated
Sun 09:01:00 AM 24.3044 -22.3290 208° Southwest  Level Estimated
Sun 09:02:00 AM 24.1934 -22.3936 208° Southwest  Level Estimated
Sun 09:03:00 AM 24.0823 -22.4580 208° Southwest  Level Estimated
Sun 09:04:00 AM 23.9712 -22.5224 208° Southwest  Level Estimated
Sun 09:05:00 AM 23.8601 -22.5867 208° Southwest  Level Estimated
Sun 09:06:00 AM 23.7490 -22.6508 208° Southwest  Level Estimated
Sun 09:07:00 AM 23.6379 -22.7148 208° Southwest  Level Estimated
Sun 09:08:00 AM 23.5267 -22.7787 208° Southwest  Level Estimated
Sun 09:09:00 AM 23.4155 -22.8426 208° Southwest  Level Estimated
Sun 09:10:00 AM 23.3042 -22.9063 208° Southwest  Level Estimated
Sun 09:11:00 AM 23.1930 -22.9699 208° Southwest  Level Estimated
Sun 09:12:00 AM 23.0817 -23.0334 208° Southwest  Level Estimated
Sun 09:13:00 AM 22.9704 -23.0968 208° Southwest  Level Estimated
Sun 09:14:00 AM 22.8591 -23.1601 208° Southwest  Level Estimated
Sun 09:15:00 AM 22.7477 -23.2232 208° Southwest  Level Estimated
Sun 09:16:00 AM 22.6363 -23.2863 208° Southwest  Level Estimated
Sun 09:17:00 AM 22.5249 -23.3493 208° Southwest  Level Estimated
Sun 09:18:00 AM 22.4135 -23.4122 208° Southwest  Level Estimated
Sun 09:19:00 AM 22.3020 -23.4750 208° Southwest  Level Estimated
Sun 09:20:00 AM 22.1905 -23.5376 208° Southwest  Level Estimated
Sun 09:21:00 AM 22.0790 -23.6002 207° Southwest  Level Estimated
Sun 09:22:00 AM 21.9675 -23.6627 207° Southwest  Level Estimated
Sun 09:23:00 AM 21.8559 -23.7251 207° Southwest  Level Estimated
Sun 09:24:00 AM 21.7444 -23.7874 207° Southwest  Level Estimated
Sun 09:25:00 AM 21.6328 -23.8496 207° Southwest  Level Estimated
Sun 09:26:00 AM 21.5212 -23.9116 207° Southwest  Level Estimated
Sun 09:27:00 AM 21.4095 -23.9736 207° Southwest  Level Estimated
Sun 09:28:00 AM 21.2978 -24.0355 207° Southwest  Level Estimated
Sun 09:29:00 AM 21.1861 -24.0973 207° Southwest  Level Estimated
Sun 09:30:00 AM 21.0744 -24.1591 207° Southwest  Level Estimated
Sun 09:31:00 AM 20.9627 -24.2207 207° Southwest  Level Estimated
Sun 09:32:00 AM 20.8509 -24.2822 207° Southwest  Level Estimated
Sun 09:33:00 AM 20.7391 -24.3437 207° Southwest  Level Estimated
Sun 09:34:00 AM 20.6273 -24.4050 207° Southwest  Level Estimated
Sun 09:35:00 AM 20.5155 -24.4663 207° Southwest  Level Estimated
Sun 09:36:00 AM 20.4037 -24.5274 207° Southwest  Level Estimated
Sun 09:37:00 AM 20.2918 -24.5885 207° Southwest  Level Estimated
Sun 09:38:00 AM 20.1799 -24.6495 207° Southwest  Level Estimated
Sun 09:39:00 AM 20.0680 -24.7104 207° Southwest  Level Estimated
Sun 09:40:00 AM 19.9561 -24.7712 207° Southwest  Level Estimated
Sun 09:41:00 AM 19.8441 -24.8319 207° Southwest  Level Estimated
Sun 09:42:00 AM 19.7322 -24.8926 207° Southwest  Level Estimated
Sun 09:43:00 AM 19.6202 -24.9531 207° Southwest  Level Estimated
Sun 09:44:00 AM 19.5082 -25.0136 207° Southwest  Level Estimated
Sun 09:45:00 AM 19.3961 -25.0740 207° Southwest  Level Estimated
Sun 09:46:00 AM 19.2841 -25.1343 207° Southwest  Level Estimated
Sun 09:47:00 AM 19.1720 -25.1946 207° Southwest  Level Estimated
Sun 09:48:00 AM 19.0599 -25.2547 207° Southwest  Level Estimated
Sun 09:49:00 AM 18.9478 -25.3148 207° Southwest  Level Estimated
Sun 09:50:00 AM 18.8357 -25.3747 207° Southwest  Level Estimated
Sun 09:51:00 AM 18.7235 -25.4346 207° Southwest  Level Estimated
Sun 09:52:00 AM 18.6114 -25.4945 207° Southwest  Level Estimated
Sun 09:53:00 AM 18.4992 -25.5542 207° Southwest  Level Estimated
Sun 09:54:00 AM 18.3870 -25.6139 207° Southwest  Level Estimated
Sun 09:55:00 AM 18.2748 -25.6735 207° Southwest  Level Estimated
Sun 09:56:00 AM 18.1625 -25.7330 207° Southwest  Level Estimated
Sun 09:57:00 AM 18.0503 -25.7924 207° Southwest  Level Estimated
Sun 09:58:00 AM 17.9380 -25.8518 207° Southwest  Level Estimated
Sun 09:59:00 AM 17.8257 -25.9110 207° Southwest  Level Estimated
Sun 10:00:00 AM 17.7134 -25.9702 207° Southwest  Level Estimated
Sun 10:01:00 AM 17.6010 -26.0294 207° Southwest  Level Estimated
Sun 10:02:00 AM 17.4887 -26.0884 207° Southwest  Level Estimated
Sun 10:03:00 AM 17.3763 -26.1474 207° Southwest  Level Estimated
Sun 10:04:00 AM 17.2639 -26.2064 207° Southwest  Level Estimated
Sun 10:05:00 AM 17.1515 -26.2652 207° Southwest  Level Estimated
Sun 10:06:00 AM 17.0391 -26.3240 207° Southwest  Level Estimated
Sun 10:07:00 AM 16.9267 -26.3827 207° Southwest  Level Estimated
Sun 10:08:00 AM 16.8142 -26.4413 207° Southwest  Level Estimated
Sun 10:09:00 AM 16.7018 -26.4998 207° Southwest  Level Estimated
Sun 10:10:00 AM 16.5893 -26.5583 206° Southwest  Level Estimated
Sun 10:11:00 AM 16.4768 -26.6168 206° Southwest  Level Estimated
Sun 10:12:00 AM 16.3643 -26.6751 206° Southwest  Level Estimated
Sun 10:13:00 AM 16.2517 -26.7334 206° Southwest  Level Estimated
Sun 10:14:00 AM 16.1392 -26.7916 206° Southwest  Level Estimated
Sun 10:15:00 AM 16.0266 -26.8498 206° Southwest  Level Estimated
Sun 10:16:00 AM 15.9141 -26.9079 206° Southwest  Level Estimated
Sun 10:17:00 AM 15.8014 -26.9659 206° Southwest  Level Estimated
Sun 10:18:00 AM 15.6888 -27.0239 206° Southwest  Level Estimated
Sun 10:19:00 AM 15.5762 -27.0818 206° Southwest  Level Estimated
Sun 10:20:00 AM 15.4636 -27.1396 206° Southwest  Level Estimated
Sun 10:21:00 AM 15.3509 -27.1974 206° Southwest  Level Estimated
Sun 10:22:00 AM 15.2382 -27.2551 206° Southwest  Level Estimated
Sun 10:23:00 AM 15.1256 -27.3127 206° Southwest  Level Estimated
Sun 10:24:00 AM 15.0128 -27.3703 206° Southwest  Level Estimated
Sun 10:25:00 AM 14.9001 -27.4279 206° Southwest  Level Estimated
Sun 10:26:00 AM 14.7874 -27.4853 206° Southwest  Level Estimated
Sun 10:27:00 AM 14.6747 -27.5427 206° Southwest  Level Estimated
Sun 10:28:00 AM 14.5619 -27.6001 206° Southwest  Level Estimated
Sun 10:29:00 AM 14.4491 -27.6574 206° Southwest  Level Estimated
Sun 10:30:00 AM 14.3363 -27.7146 206° Southwest  Level Estimated
Sun 10:31:00 AM 14.2235 -27.7718 206° Southwest  Level Estimated
Sun 10:32:00 AM 14.1107 -27.8289 206° Southwest  Level Estimated
Sun 10:33:00 AM 13.9979 -27.8860 206° Southwest  Level Estimated
Sun 10:34:00 AM 13.8851 -27.9430 206° Southwest  Level Estimated
Sun 10:35:00 AM 13.7722 -27.9999 206° Southwest  Level Estimated
Sun 10:36:00 AM 13.6593 -28.0568 206° Southwest  Level Estimated
Sun 10:37:00 AM 13.5465 -28.1136 206° Southwest  Level Estimated
Sun 10:38:00 AM 13.4336 -28.1704 206° Southwest  Level Estimated
Sun 10:39:00 AM 13.3207 -28.2271 206° Southwest  Level Estimated
Sun 10:40:00 AM 13.2078 -28.2838 206° Southwest  Level Estimated
Sun 10:41:00 AM 13.0948 -28.3405 206° Southwest  Level Estimated
Sun 10:42:00 AM 12.9819 -28.3970 206° Southwest  Level Estimated
Sun 10:43:00 AM 12.8689 -28.4536 206° Southwest  Level Estimated
Sun 10:44:00 AM 12.7560 -28.5100 206° Southwest  Level Estimated
Sun 10:45:00 AM 12.6430 -28.5664 206° Southwest  Level Estimated
Sun 10:46:00 AM 12.5300 -28.6228 206° Southwest  Level Estimated
Sun 10:47:00 AM 12.4170 -28.6791 206° Southwest  Level Estimated
Sun 10:48:00 AM 12.3040 -28.7354 206° Southwest  Level Estimated
Sun 10:49:00 AM 12.1910 -28.7916 206° Southwest  Level Estimated
Sun 10:50:00 AM 12.0779 -28.8478 206° Southwest  Level Estimated
Sun 10:51:00 AM 11.9649 -28.9039 206° Southwest  Level Estimated
Sun 10:52:00 AM 11.8518 -28.9600 206° Southwest  Level Estimated
Sun 10:53:00 AM 11.7387 -29.0161 206° Southwest  Level Estimated
Sun 10:54:00 AM 11.6257 -29.0720 206° Southwest  Level Estimated
Sun 10:55:00 AM 11.5126 -29.1280 206° Southwest  Level Estimated
Sun 10:56:00 AM 11.3995 -29.1839 206° Southwest  Level Estimated
Sun 10:57:00 AM 11.2864 -29.2397 206° Southwest  Level Estimated
Sun 10:58:00 AM 11.1732 -29.2955 206° Southwest  Level Estimated
Sun 10:59:00 AM 11.0601 -29.3513 206° Southwest  Level Estimated
Sun 11:00:00 AM 10.9470 -29.4070 206° Southwest  Level Estimated
Sun 11:01:00 AM 10.8338 -29.4627 206° Southwest  Level Estimated
Sun 11:02:00 AM 10.7207 -29.5184 206° Southwest  Level Estimated
Sun 11:03:00 AM 10.6075 -29.5739 206° Southwest  Level Estimated
Sun 11:04:00 AM 10.4943 -29.6295 206° Southwest  Level Estimated
Sun 11:05:00 AM 10.3811 -29.6850 206° Southwest  Level Estimated
Sun 11:06:00 AM 10.2679 -29.7405 206° Southwest  Level Estimated
Sun 11:07:00 AM 10.1547 -29.7959 206° Southwest  Level Estimated
Sun 11:08:00 AM 10.0415 -29.8514 206° Southwest  Level Estimated
Sun 11:09:00 AM 9.9283 -29.9067 206° Southwest  Level Estimated
Sun 11:10:00 AM 9.8150 -29.9620 206° Southwest  Level Estimated
Sun 11:11:00 AM 9.7018 -30.0173 206° Southwest  Level Estimated
Sun 11:12:00 AM 9.5885 -30.0725 206° Southwest  Level Estimated
Sun 11:13:00 AM 9.4752 -30.1278 206° Southwest  Level Estimated
Sun 11:14:00 AM 9.3620 -30.1829 206° Southwest  Level Estimated
Sun 11:15:00 AM 9.2487 -30.2381 206° Southwest  Level Estimated
Sun 11:16:00 AM 9.1354 -30.2932 206° Southwest  Level Estimated
Sun 11:17:00 AM 9.0221 -30.3482 206° Southwest  Level Estimated
Sun 11:18:00 AM 8.9088 -30.4033 206° Southwest  Level Estimated
Sun 11:19:00 AM 8.7955 -30.4583 206° Southwest  Level Estimated
Sun 11:20:00 AM 8.6821 -30.5132 206° Southwest  Level Estimated
Sun 11:21:00 AM 8.5688 -30.5681 206° Southwest  Level Estimated
Sun 11:22:00 AM 8.4555 -30.6231 206° Southwest  Level Estimated
Sun 11:23:00 AM 8.3421 -30.6779 206° Southwest  Level Estimated
Sun 11:24:00 AM 8.2288 -30.7327 206° Southwest  Level Estimated
Sun 11:25:00 AM 8.1154 -30.7875 206° Southwest  Level Estimated
Sun 11:26:00 AM 8.0021 -30.8423 206° Southwest  Level Estimated
Sun 11:27:00 AM 7.8887 -30.8971 206° Southwest  Level Estimated
Sun 11:28:00 AM 7.7753 -30.9518 206° Southwest  Level Estimated
Sun 11:29:00 AM 7.6619 -31.0064 206° Southwest  Level Estimated
Sun 11:30:00 AM 7.5485 -31.0611 206° Southwest  Level Estimated
Sun 11:31:00 AM 7.4351 -31.1157 206° Southwest  Level Estimated
Sun 11:32:00 AM 7.3217 -31.1703 206° Southwest  Level Estimated
Sun 11:33:00 AM 7.2083 -31.2249 206° Southwest  Level Estimated
Sun 11:34:00 AM 7.0949 -31.2794 206° Southwest  Level Estimated
Sun 11:35:00 AM 6.9814 -31.3339 206° Southwest  Level Estimated
Sun 11:36:00 AM 6.8680 -31.3884 205° Southwest  Level Estimated
Sun 11:37:00 AM 6.7545 -31.4429 205° Southwest  Level Estimated
Sun 11:38:00 AM 6.6411 -31.4973 205° Southwest  Level Estimated
Sun 11:39:00 AM 6.5276 -31.5517 205° Southwest  Level Estimated
Sun 11:40:00 AM 6.4142 -31.6061 205° Southwest  Level Estimated
Sun 11:41:00 AM 6.3007 -31.6604 205° Southwest  Level Estimated
Sun 11:42:00 AM 6.1872 -31.7148 205° Southwest  Level Estimated
Sun 11:43:00 AM 6.0738 -31.7691 205° Southwest  Level Estimated
Sun 11:44:00 AM 5.9603 -31.8234 205° Southwest  Level Estimated
Sun 11:45:00 AM 5.8468 -31.8777 205° Southwest  Level Estimated
Sun 11:46:00 AM 5.7333 -31.9319 205° Southwest  Level Estimated
Sun 11:47:00 AM 5.6198 -31.9861 205° Southwest  Level Estimated
Sun 11:48:00 AM 5.5063 -32.0403 205° Southwest  Level Estimated
Sun 11:49:00 AM 5.3928 -32.0945 205° Southwest  Level Estimated
Sun 11:50:00 AM 5.2793 -32.1487 205° Southwest  Level Estimated
Sun 11:51:00 AM 5.1658 -32.2028 205° Southwest  Level Estimated
Sun 11:52:00 AM 5.0522 -32.2569 205° Southwest  Level Estimated
Sun 11:53:00 AM 4.9387 -32.3110 205° Southwest  Level Estimated
Sun 11:54:00 AM 4.8252 -32.3651 205° Southwest  Level Estimated
Sun 11:55:00 AM 4.7116 -32.4192 205° Southwest  Level Estimated
Sun 11:56:00 AM 4.5981 -32.4732 205° Southwest  Level Estimated
Sun 11:57:00 AM 4.4845 -32.5273 205° Southwest  Level Estimated
Sun 11:58:00 AM 4.3710 -32.5813 205° Southwest  Level Estimated
Sun 11:59:00 AM 4.2575 -32.6353 205° Southwest  Level Estimated
Sun 12:00:00 PM 4.1439 -32.6893 205° Southwest  Level Estimated
Sun 12:01:00 PM 4.0303 -32.7432 205° Southwest  Level Estimated
Sun 12:02:00 PM 3.9168 -32.7972 205° Southwest  Level Estimated
Sun 12:03:00 PM 3.8032 -32.8511 205° Southwest  Level Estimated
Sun 12:04:00 PM 3.6896 -32.9050 205° Southwest  Level Estimated
Sun 12:05:00 PM 3.5761 -32.9590 205° Southwest  Level Estimated
Sun 12:06:00 PM 3.4625 -33.0129 205° Southwest  Level Estimated
Sun 12:07:00 PM 3.3489 -33.0667 205° Southwest  Level Estimated
Sun 12:08:00 PM 3.2353 -33.1206 205° Southwest  Level Estimated
Sun 12:09:00 PM 3.1217 -33.1745 205° Southwest  Level Estimated
Sun 12:10:00 PM 3.0081 -33.2283 205° Southwest  Level Estimated
Sun 12:11:00 PM 2.8946 -33.2822 205° Southwest  Level Estimated
Sun 12:12:00 PM 2.7810 -33.3360 205° Southwest  Level Estimated
Sun 12:13:00 PM 2.6674 -33.3898 205° Southwest  Level Estimated
Sun 12:14:00 PM 2.5538 -33.4436 205° Southwest  Level Estimated
Sun 12:15:00 PM 2.4402 -33.4974 205° Southwest  Level Estimated
Sun 12:16:00 PM 2.3266 -33.5512 205° Southwest  Level Estimated
Sun 12:17:00 PM 2.2130 -33.6050 205° Southwest  Level Estimated
Sun 12:18:00 PM 2.0993 -33.6588 205° Southwest  Level Estimated
Sun 12:19:00 PM 1.9857 -33.7125 205° Southwest  Level Estimated
Sun 12:20:00 PM 1.8721 -33.7663 205° Southwest  Level Estimated
Sun 12:21:00 PM 1.7585 -33.8200 205° Southwest  Level Estimated
Sun 12:22:00 PM 1.6449 -33.8738 205° Southwest  Level Estimated
Sun 12:23:00 PM 1.5313 -33.9275 205° Southwest  Level Estimated
Sun 12:24:00 PM 1.4177 -33.9812 205° Southwest  Level Estimated
Sun 12:25:00 PM 1.3041 -34.0350 205° Southwest  Level Estimated
Sun 12:26:00 PM 1.1904 -34.0887 205° Southwest  Level Estimated
Sun 12:27:00 PM 1.0768 -34.1424 205° Southwest  Level Estimated
Sun 12:28:00 PM 0.9632 -34.1961 205° Southwest  Level Estimated
Sun 12:29:00 PM 0.8496 -34.2498 205° Southwest  Level Estimated
Sun 12:30:00 PM 0.7360 -34.3035 205° Southwest  Level Estimated
Sun 12:31:00 PM 0.6223 -34.3572 205° Southwest  Level Estimated
Sun 12:32:00 PM 0.5087 -34.4109 205° Southwest  Level Estimated
Sun 12:33:00 PM 0.3951 -34.4646 205° Southwest  Level Estimated
Sun 12:34:00 PM 0.2815 -34.5183 205° Southwest  Level Estimated
Sun 12:35:00 PM 0.1679 -34.5720 205° Southwest  Level Estimated
Sun 12:36:00 PM 0.0542 -34.6257 205° Southwest  Level Estimated
Sun 12:37:00 PM -0.0594 -34.6794 205° Southwest  Level Estimated
Sun 12:38:00 PM -0.1730 -34.7331 205° Southwest  Level Estimated
Sun 12:39:00 PM -0.2866 -34.7868 205° Southwest  Level Estimated
Sun 12:40:00 PM -0.4002 -34.8405 205° Southwest  Level Estimated
Sun 12:41:00 PM -0.5139 -34.8941 205° Southwest  Level Estimated
Sun 12:42:00 PM -0.6275 -34.9478 205° Southwest  Level Estimated
Sun 12:43:00 PM -0.7411 -35.0015 205° Southwest  Level Estimated
Sun 12:44:00 PM -0.8547 -35.0552 205° Southwest  Level Estimated
Sun 12:45:00 PM -0.9683 -35.1090 205° Southwest  Level Estimated
Sun 12:46:00 PM -1.0820 -35.1627 205° Southwest  Level Estimated
Sun 12:46:17 PM -1.5390 -37.6740 205° Southwest 486 559 37,000  Level FlightAware ADS-B
Sun 12:46:57 PM -1.6090 -37.7110 208° Southwest 487 560 37,000  Level FlightAware ADS-B
Sun 12:47:00 PM -1.1956 -35.2164 205° Southwest  Level Estimated
Sun 12:47:42 PM -1.7030 -37.7600 208° Southwest 490 564 37,000  Level FlightAware ADS-B
Sun 12:48:22 PM -1.7720 -37.7950 207° Southwest 490 564 37,000  Level FlightAware ADS-B
Sun 12:49:02 PM -1.8400 -37.8300 207° Southwest 490 564 37,000  Level FlightAware ADS-B
Sun 12:49:47 PM -1.9640 -37.8960 208° Southwest 488 562 37,000  Level FlightAware ADS-B
Sun 12:50:27 PM -2.0430 -37.9380 208° Southwest 489 563 37,000  Level FlightAware ADS-B
Sun 12:51:07 PM -2.1240 -37.9820 208° Southwest 488 562 37,000  Level FlightAware ADS-B
Sun 12:51:52 PM -2.2100 -38.0310 210° Southwest 489 563 37,000  Level FlightAware ADS-B
Sun 12:52:32 PM -2.2870 -38.0750 210° Southwest 488 562 37,000  Level FlightAware ADS-B
Sun 12:53:17 PM -2.3800 -38.1260 209° Southwest 490 564 37,000 -353 Level FlightAware ADS-B
Sun 12:53:57 PM -2.4600 -38.1700 209° Southwest 490 564 36,500 -750 Descending FlightAware ADS-B
Sun 12:54:37 PM -2.5370 -38.2110 208° Southwest 498 573 36,000 -353 Descending FlightAware ADS-B
Sun 12:55:22 PM -2.6290 -38.2620 209° Southwest 495 570 36,000  Level FlightAware ADS-B
Sun 12:56:02 PM -2.7100 -38.3060 208° Southwest 495 570 36,000  Level FlightAware ADS-B
Sun 12:56:47 PM -2.8030 -38.3580 209° Southwest 498 573 36,000  Level FlightAware ADS-B
Sun 12:57:27 PM -2.8820 -38.3960 206° Southwest 498 573 36,000  Level FlightAware ADS-B
Sun 12:58:07 PM -2.9700 -38.4370 205° Southwest 501 577 36,000  Level FlightAware ADS-B
Sun 12:58:52 PM -3.0650 -38.4750 202° Southwest 500 575 36,000  Level FlightAware ADS-B
Sun 12:59:32 PM -3.1520 -38.5060 200° South 501 577 36,000  Level FlightAware ADS-B
Sun 01:00:17 PM -3.2540 -38.5430 200° South 502 578 36,000  Level FlightAware ADS-B
Sun 01:00:57 PM -3.3400 -38.5770 202° Southwest 502 578 36,000  Level FlightAware ADS-B
Sun 01:01:37 PM -3.4270 -38.6110 201° Southwest 499 574 36,000  Level FlightAware ADS-B
Sun 01:02:22 PM -3.5200 -38.6460 201° Southwest 499 574 36,000  Level FlightAware ADS-B
Sun 01:03:02 PM -3.6090 -38.6790 200° South 499 574 36,000  Level FlightAware ADS-B
Sun 01:03:47 PM -3.7090 -38.7170 201° Southwest 498 573 36,000  Level FlightAware ADS-B
Sun 01:04:27 PM -3.7970 -38.7500 201° Southwest 498 573 36,000  Level FlightAware ADS-B
Sun 01:05:07 PM -3.8810 -38.7810 200° South 499 574 36,000  Level FlightAware ADS-B
Sun 01:05:52 PM -3.9770 -38.8160 200° South 499 574 36,000  Level FlightAware ADS-B
Sun 01:06:32 PM -4.0630 -38.8480 200° South 499 574 36,000  Level FlightAware ADS-B
Sun 01:07:17 PM -4.1650 -38.8860 200° South 500 575 36,000  Level FlightAware ADS-B
Sun 01:07:57 PM -4.2510 -38.9180 200° South 501 577 36,000  Level FlightAware ADS-B
Sun 01:08:37 PM -4.3400 -38.9510 200° South 502 578 36,000  Level FlightAware ADS-B
Sun 01:09:22 PM -4.4360 -38.9870 200° South 505 581 36,000  Level FlightAware ADS-B
Sun 01:10:02 PM -4.5240 -39.0200 200° South 506 582 36,000  Level FlightAware ADS-B
Sun 01:10:47 PM -4.6240 -39.0570 200° South 508 585 36,000  Level FlightAware ADS-B
Sun 01:11:27 PM -4.7130 -39.0900 200° South 510 587 36,000  Level FlightAware ADS-B
Sun 01:12:07 PM -4.7980 -39.1220 201° Southwest 511 588 36,000  Level FlightAware ADS-B
Sun 01:12:52 PM -4.8990 -39.1600 201° Southwest 511 588 36,000  Level FlightAware ADS-B
Sun 01:13:42 PM -5.0030 -39.1980 200° South 511 588 36,000  Level FlightAware ADS-B
Sun 01:14:32 PM -5.0980 -39.2330 200° South 511 588 36,000  Level FlightAware ADS-B
Sun 01:15:17 PM -5.2200 -39.2790 201° Southwest 512 589 36,000  Level FlightAware ADS-B
Sun 01:16:17 PM -5.3520 -39.3280 200° South 513 590 36,000  Level FlightAware ADS-B
Sun 01:16:57 PM -5.4280 -39.3560 200° South 513 590 36,000  Level FlightAware ADS-B
Sun 01:17:37 PM -5.5040 -39.3840 200° South 513 590 36,000  Level FlightAware ADS-B
Sun 01:18:17 PM -5.5800 -39.4110 199° South 513 590 36,000  Level FlightAware ADS-B
Sun 01:18:57 PM -5.6550 -39.4390 200° South 513 590 36,000  Level FlightAware ADS-B
Sun 01:19:47 PM -5.7500 -39.4740 200° South 513 590 36,000  Level FlightAware ADS-B
Sun 01:20:27 PM -5.8260 -39.5010 199° South 513 590 36,000  Level FlightAware ADS-B
Sun 01:21:07 PM -5.9020 -39.5290 200° South 513 590 36,000  Level FlightAware ADS-B
Sun 01:21:47 PM -5.9780 -39.5570 200° South 513 590 36,000  Level FlightAware ADS-B
Sun 01:22:27 PM -6.0540 -39.5850 200° South 513 590 36,000  Level FlightAware ADS-B
Sun 01:23:17 PM -6.1480 -39.6190 200° South 513 590 36,000  Level FlightAware ADS-B
Sun 01:23:57 PM -6.2240 -39.6470 200° South 513 590 36,000  Level FlightAware ADS-B
Sun 01:24:37 PM -6.3000 -39.6750 200° South 513 590 36,000  Level FlightAware ADS-B
Sun 01:25:17 PM -6.3760 -39.7030 200° South 513 590 36,000 26 Level FlightAware ADS-B
Sun 01:27:00 PM -6.5785 -39.7779 200° South  Level Estimated
Sun 01:28:00 PM -6.6964 -39.8216 200° South  Level Estimated
Sun 01:29:00 PM -6.8144 -39.8653 200° South  Level Estimated
Sun 01:30:00 PM -6.9323 -39.9091 200° South  Level Estimated
Sun 01:31:00 PM -7.0502 -39.9528 200° South  Level Estimated
Sun 01:32:00 PM -7.1682 -39.9966 200° South  Level Estimated
Sun 01:33:00 PM -7.2861 -40.0404 200° South  Level Estimated
Sun 01:34:00 PM -7.4040 -40.0842 200° South  Level Estimated
Sun 01:35:00 PM -7.5219 -40.1280 200° South  Level Estimated
Sun 01:36:00 PM -7.6398 -40.1719 200° South  Level Estimated
Sun 01:37:00 PM -7.7577 -40.2158 200° South  Level Estimated
Sun 01:38:00 PM -7.8756 -40.2597 200° South  Level Estimated
Sun 01:39:00 PM -7.9935 -40.3036 200° South  Level Estimated
Sun 01:40:00 PM -8.1114 -40.3476 200° South  Level Estimated
Sun 01:41:00 PM -8.2293 -40.3916 200° South  Level Estimated
Sun 01:42:00 PM -8.3472 -40.4356 200° South  Level Estimated
Sun 01:43:00 PM -8.4651 -40.4796 200° South  Level Estimated
Sun 01:44:00 PM -8.5829 -40.5237 200° South  Level Estimated
Sun 01:45:00 PM -8.7008 -40.5678 200° South  Level Estimated
Sun 01:46:00 PM -8.8187 -40.6119 200° South  Level Estimated
Sun 01:47:00 PM -8.9365 -40.6561 200° South  Level Estimated
Sun 01:48:00 PM -9.0544 -40.7003 200° South  Level Estimated
Sun 01:49:00 PM -9.1733 -40.7449 200° South  Level Estimated
Sun 01:50:00 PM -9.2922 -40.7895 200° South  Level Estimated
Sun 01:51:00 PM -9.4111 -40.8342 200° South  Level Estimated
Sun 01:52:00 PM -9.5300 -40.8789 200° South  Level Estimated
Sun 01:53:00 PM -9.6489 -40.9236 200° South  Level Estimated
Sun 01:54:00 PM -9.7677 -40.9684 200° South  Level Estimated
Sun 01:55:00 PM -9.8866 -41.0132 200° South  Level Estimated
Sun 01:56:00 PM -10.0055 -41.0580 200° South  Level Estimated
Sun 01:57:00 PM -10.1243 -41.1029 200° South  Level Estimated
Sun 01:58:00 PM -10.2432 -41.1477 200° South  Level Estimated
Sun 01:59:00 PM -10.3621 -41.1927 200° South  Level Estimated
Sun 02:00:00 PM -10.4809 -41.2376 200° South  Level Estimated
Sun 02:01:00 PM -10.5997 -41.2826 200° South  Level Estimated
Sun 02:02:00 PM -10.7186 -41.3276 200° South  Level Estimated
Sun 02:03:00 PM -10.8374 -41.3727 200° South  Level Estimated
Sun 02:04:00 PM -10.9562 -41.4178 200° South  Level Estimated
Sun 02:05:00 PM -11.0750 -41.4630 200° South  Level Estimated
Sun 02:06:00 PM -11.1938 -41.5081 200° South  Level Estimated
Sun 02:07:00 PM -11.3126 -41.5533 200° South  Level Estimated
Sun 02:08:00 PM -11.4314 -41.5986 200° South  Level Estimated
Sun 02:09:00 PM -11.5502 -41.6439 200° South  Level Estimated
Sun 02:10:00 PM -11.6690 -41.6892 200° South  Level Estimated
Sun 02:11:00 PM -11.7877 -41.7346 200° South  Level Estimated
Sun 02:12:00 PM -11.9065 -41.7800 201° Southwest  Level Estimated
Sun 02:13:00 PM -12.0253 -41.8254 201° Southwest  Level Estimated
Sun 02:14:00 PM -12.1440 -41.8709 201° Southwest  Level Estimated
Sun 02:15:00 PM -12.2627 -41.9164 201° Southwest  Level Estimated
Sun 02:16:00 PM -12.3815 -41.9620 201° Southwest  Level Estimated
Sun 02:17:00 PM -12.5002 -42.0076 201° Southwest  Level Estimated
Sun 02:18:00 PM -12.6189 -42.0532 201° Southwest  Level Estimated
Sun 02:19:00 PM -12.7376 -42.0989 201° Southwest  Level Estimated
Sun 02:20:00 PM -12.8563 -42.1446 201° Southwest  Level Estimated
Sun 02:21:00 PM -12.9750 -42.1904 201° Southwest  Level Estimated
Sun 02:22:00 PM -13.0937 -42.2362 201° Southwest  Level Estimated
Sun 02:23:00 PM -13.2124 -42.2821 201° Southwest  Level Estimated
Sun 02:24:00 PM -13.3310 -42.3280 201° Southwest  Level Estimated
Sun 02:25:00 PM -13.4497 -42.3740 201° Southwest  Level Estimated
Sun 02:26:00 PM -13.5684 -42.4200 201° Southwest  Level Estimated
Sun 02:27:00 PM -13.6870 -42.4660 201° Southwest  Level Estimated
Sun 02:28:00 PM -13.8056 -42.5121 201° Southwest  Level Estimated
Sun 02:29:00 PM -13.9243 -42.5582 201° Southwest  Level Estimated
Sun 02:30:00 PM -14.0429 -42.6044 201° Southwest  Level Estimated
Sun 02:31:00 PM -14.1615 -42.6507 201° Southwest  Level Estimated
Sun 02:32:00 PM -14.2801 -42.6969 201° Southwest  Level Estimated
Sun 02:33:00 PM -14.3987 -42.7433 201° Southwest  Level Estimated
Sun 02:34:00 PM -14.5173 -42.7896 201° Southwest  Level Estimated
Sun 02:35:00 PM -14.6358 -42.8361 201° Southwest  Level Estimated
Sun 02:36:00 PM -14.7544 -42.8826 201° Southwest  Level Estimated
Sun 02:37:00 PM -14.8730 -42.9291 201° Southwest  Level Estimated
Sun 02:38:00 PM -14.9915 -42.9757 201° Southwest  Level Estimated
Sun 02:39:00 PM -15.1101 -43.0223 201° Southwest  Level Estimated
Sun 02:40:00 PM -15.2286 -43.0690 201° Southwest  Level Estimated
Sun 02:41:00 PM -15.3471 -43.1157 201° Southwest  Level Estimated
Sun 02:42:00 PM -15.4656 -43.1625 201° Southwest  Level Estimated
Sun 02:42:27 PM -15.9540 -44.2660 201° Southwest 462 532 38,000  Level FlightAware ADS-B
Sun 02:43:00 PM -15.5841 -43.2094 201° Southwest  Level Estimated
Sun 02:43:17 PM -16.0510 -44.3170 207° Southwest 461 531 38,000  Level FlightAware ADS-B
Sun 02:43:52 PM -16.1150 -44.3500 206° Southwest 458 527 38,000  Level FlightAware ADS-B
Sun 02:44:37 PM -16.1900 -44.3900 207° Southwest 458 527 38,000  Level FlightAware ADS-B
Sun 02:45:27 PM -16.2980 -44.4460 206° Southwest 454 522 38,000  Level FlightAware ADS-B
Sun 02:45:57 PM -16.3520 -44.4740 206° Southwest 455 524 38,000  Level FlightAware ADS-B
Sun 02:46:57 PM -16.4610 -44.5320 207° Southwest 455 524 38,000  Level FlightAware ADS-B
Sun 02:47:42 PM -16.5500 -44.5780 206° Southwest 457 526 38,000  Level FlightAware ADS-B
Sun 02:48:27 PM -16.6360 -44.6240 207° Southwest 458 527 38,000  Level FlightAware ADS-B
Sun 02:49:07 PM -16.7100 -44.6630 207° Southwest 458 527 38,000  Level FlightAware ADS-B
Sun 02:49:42 PM -16.7800 -44.7000 207° Southwest 460 529 38,000  Level FlightAware ADS-B
Sun 02:50:32 PM -16.8680 -44.7460 207° Southwest 460 529 38,000  Level FlightAware ADS-B
Sun 02:51:12 PM -16.9490 -44.7880 206° Southwest 459 528 38,000  Level FlightAware ADS-B
Sun 02:51:57 PM -17.0370 -44.8330 206° Southwest 458 527 38,000  Level FlightAware ADS-B
Sun 02:52:32 PM -17.1040 -44.8680 207° Southwest 457 526 38,000  Level FlightAware ADS-B
Sun 02:53:17 PM -17.1810 -44.9090 207° Southwest 457 526 38,000  Level FlightAware ADS-B
Sun 02:54:02 PM -17.2730 -44.9570 206° Southwest 457 526 38,000  Level FlightAware ADS-B
Sun 02:54:47 PM -17.3580 -45.0010 206° Southwest 456 525 38,000  Level FlightAware ADS-B
Sun 02:55:27 PM -17.4360 -45.0420 207° Southwest 454 522 38,000  Level FlightAware ADS-B
Sun 02:56:07 PM -17.5040 -45.0800 208° Southwest 454 522 38,000  Level FlightAware ADS-B
Sun 02:56:52 PM -17.5930 -45.1300 208° Southwest 454 522 38,000  Level FlightAware ADS-B
Sun 02:57:32 PM -17.6670 -45.1700 207° Southwest 454 522 38,000  Level FlightAware ADS-B
Sun 02:58:12 PM -17.7400 -45.2090 207° Southwest 456 525 38,000  Level FlightAware ADS-B
Sun 02:58:57 PM -17.8270 -45.2540 206° Southwest 457 526 38,000  Level FlightAware ADS-B
Sun 02:59:37 PM -17.9030 -45.2940 207° Southwest 458 527 38,000  Level FlightAware ADS-B
Sun 03:00:22 PM -17.9890 -45.3390 206° Southwest 457 526 38,000  Level FlightAware ADS-B
Sun 03:01:02 PM -18.0660 -45.3800 207° Southwest 459 528 38,000  Level FlightAware ADS-B
Sun 03:01:42 PM -18.1390 -45.4180 206° Southwest 462 532 38,000  Level FlightAware ADS-B
Sun 03:02:27 PM -18.2290 -45.4640 206° Southwest 468 539 38,000  Level FlightAware ADS-B
Sun 03:03:07 PM -18.3070 -45.5040 206° Southwest 468 539 38,000  Level FlightAware ADS-B
Sun 03:03:52 PM -18.3960 -45.5490 206° Southwest 470 541 38,000  Level FlightAware ADS-B
Sun 03:04:32 PM -18.4720 -45.5890 207° Southwest 471 542 38,000  Level FlightAware ADS-B
Sun 03:05:17 PM -18.5640 -45.6320 204° Southwest 473 544 38,000  Level FlightAware ADS-B
Sun 03:05:52 PM -18.6250 -45.6610 204° Southwest 473 544 38,000  Level FlightAware ADS-B
Sun 03:06:37 PM -18.7210 -45.7070 204° Southwest 472 543 38,000  Level FlightAware ADS-B
Sun 03:07:22 PM -18.8120 -45.7500 204° Southwest 471 542 38,000  Level FlightAware ADS-B
Sun 03:08:02 PM -18.8910 -45.7890 205° Southwest 467 537 38,000  Level FlightAware ADS-B
Sun 03:08:42 PM -18.9690 -45.8280 205° Southwest 465 535 38,000  Level FlightAware ADS-B
Sun 03:09:27 PM -19.0550 -45.8720 206° Southwest 463 533 38,000  Level FlightAware ADS-B
Sun 03:10:07 PM -19.1330 -45.9110 205° Southwest 463 533 38,000  Level FlightAware ADS-B
Sun 03:10:52 PM -19.2210 -45.9550 205° Southwest 463 533 38,000  Level FlightAware ADS-B
Sun 03:11:27 PM -19.2810 -45.9850 205° Southwest 464 534 38,000  Level FlightAware ADS-B
Sun 03:12:17 PM -19.3840 -46.0350 205° Southwest 464 534 38,000  Level FlightAware ADS-B
Sun 03:12:57 PM -19.4620 -46.0740 205° Southwest 465 535 38,000  Level FlightAware ADS-B
Sun 03:13:37 PM -19.5440 -46.1130 204° Southwest 467 537 38,000  Level FlightAware ADS-B
Sun 03:14:22 PM -19.6290 -46.1540 204° Southwest 468 539 38,000  Level FlightAware ADS-B
Sun 03:15:02 PM -19.7100 -46.1930 204° Southwest 469 540 38,000  Level FlightAware ADS-B
Sun 03:15:47 PM -19.7940 -46.2340 205° Southwest 470 541 38,000  Level FlightAware ADS-B
Sun 03:16:27 PM -19.8770 -46.2740 204° Southwest 468 539 38,000  Level FlightAware ADS-B
Sun 03:17:07 PM -19.9550 -46.3130 205° Southwest 469 540 38,000  Level FlightAware ADS-B
Sun 03:17:52 PM -20.0450 -46.3590 206° Southwest 472 543 38,000  Level FlightAware ADS-B
Sun 03:18:32 PM -20.1260 -46.4000 205° Southwest 475 547 38,000  Level FlightAware ADS-B
Sun 03:19:17 PM -20.2150 -46.4440 205° Southwest 474 545 38,000  Level FlightAware ADS-B
Sun 03:19:47 PM -20.2760 -46.4750 205° Southwest 473 544 38,000  Level FlightAware ADS-B
Sun 03:20:37 PM -20.3750 -46.5250 205° Southwest 474 545 38,000  Level FlightAware ADS-B
Sun 03:21:22 PM -20.4640 -46.5690 205° Southwest 471 542 38,000  Level FlightAware ADS-B
Sun 03:22:02 PM -20.5470 -46.6120 206° Southwest 471 542 38,000  Level FlightAware ADS-B
Sun 03:22:47 PM -20.6280 -46.6520 205° Southwest 471 542 38,000  Level FlightAware ADS-B
Sun 03:23:27 PM -20.7130 -46.6910 203° Southwest 478 550 38,000  Level FlightAware ADS-B
Sun 03:24:07 PM -20.7950 -46.7150 195° South 488 562 38,000  Level FlightAware ADS-B
Sun 03:24:52 PM -20.9020 -46.7370 191° South 482 555 38,000  Level FlightAware ADS-B
Sun 03:25:27 PM -20.9700 -46.7510 191° South 481 554 38,000  Level FlightAware ADS-B
Sun 03:26:07 PM -21.0640 -46.7710 191° South 480 552 38,000 -57 Level FlightAware ADS-B
Sun 03:27:12 PM -21.2010 -46.8000 191° South 478 550 37,900 -571 Descending FlightAware ADS-B
Sun 03:27:52 PM -21.2910 -46.8200 192° South 472 543 37,000 -1,553 Descending FlightAware ADS-B
Sun 03:28:37 PM -21.3930 -46.8420 191° South 487 560 35,700 -1,624 Descending FlightAware ADS-B
Sun 03:29:17 PM -21.4830 -46.8610 191° South 493 567 34,700 -1,500 Descending FlightAware ADS-B
Sun 03:29:57 PM -21.5720 -46.8800 191° South 494 568 33,700 -1,412 Descending FlightAware ADS-B
Sun 03:30:42 PM -21.6760 -46.9020 191° South 493 567 32,700 -1,280 Descending FlightAware ADS-B
Sun 03:31:12 PM -21.7420 -46.9160 191° South 491 565 32,100 -1,425 Descending FlightAware ADS-B
Sun 03:32:02 PM -21.8530 -46.9400 191° South 493 567 30,800 -1,579 Descending FlightAware ADS-B
Sun 03:32:47 PM -21.9380 -46.9590 192° South 499 574 29,600 -1,425 Descending FlightAware ADS-B
Sun 03:33:22 PM -22.0150 -46.9750 191° South 493 567 28,900 -1,200 Descending FlightAware ADS-B
Sun 03:34:12 PM -22.1240 -46.9990 192° South 483 556 27,900 -1,200 Descending FlightAware ADS-B
Sun 03:34:47 PM -22.1970 -47.0150 191° South 474 545 27,200 -1,800 Descending FlightAware ADS-B
Sun 03:35:32 PM -22.2910 -47.0350 191° South 461 531 25,500 -2,400 Descending FlightAware ADS-B
Sun 03:36:17 PM -22.4030 -47.0590 191° South 442 509 23,600 -2,400 Descending FlightAware ADS-B
Sun 03:36:57 PM -22.4830 -47.0770 192° South 441 507 22,100 -2,188 Descending FlightAware ADS-B
Sun 03:37:42 PM -22.5740 -47.0900 188° South 421 484 20,500 -2,118 Descending FlightAware ADS-B
Sun 03:38:22 PM -22.6490 -47.0680 165° South 417 480 19,100 -2,100 Descending FlightAware ADS-B
Sun 03:39:02 PM -22.7230 -47.0370 159° South 413 475 17,700 -1,976 Descending FlightAware ADS-B
Sun 03:39:47 PM -22.8000 -47.0040 158° South 397 457 16,300 -1,835 Descending FlightAware ADS-B
Sun 03:40:27 PM -22.8700 -46.9750 159° South 378 435 15,100 -1,765 Descending FlightAware ADS-B
Sun 03:41:12 PM -22.9420 -46.9440 158° South 366 421 13,800 -1,765 Descending FlightAware ADS-B
Sun 03:41:52 PM -23.0060 -46.9180 159° South 350 403 12,600 -1,725 Descending FlightAware ADS-B
Sun 03:42:32 PM -23.0650 -46.8930 159° South 329 379 11,500 -1,624 Descending FlightAware ADS-B
Sun 03:43:17 PM -23.1290 -46.8660 159° South 309 356 10,300 -1,286 Descending FlightAware ADS-B
Sun 03:43:42 PM -23.1630 -46.8520 159° South 297 342 10,000 -764 Descending FlightAware ADS-B
Sun 03:44:12 PM -23.2010 -46.8350 158° South 293 337 9,600 -1,100 Descending FlightAware ADS-B
Sun 03:44:42 PM -23.2400 -46.8190 159° South 290 334 8,900 -1,309 Descending FlightAware ADS-B
Sun 03:45:07 PM -23.2710 -46.8060 159° South 281 323 8,400 -1,200 Descending FlightAware ADS-B
Sun 03:45:37 PM -23.3080 -46.7900 158° South 279 321 7,800 -1,309 Descending FlightAware ADS-B
Sun 03:46:02 PM -23.3390 -46.7770 159° South 276 318 7,200 -1,200 Descending FlightAware ADS-B
Sun 03:46:17 PM -23.3580 -46.7690 159° South 279 321 7,000 -933 Descending FlightAware ADS-B
Sun 03:46:47 PM -23.3900 -46.7460 147° Southeast 275 316 6,500 -982 Descending FlightAware ADS-B
Sun 03:47:12 PM -23.4150 -46.7230 140° Southeast 276 318 6,100 -764 Descending FlightAware ADS-B
Sun 03:47:42 PM -23.4430 -46.6950 137° Southeast 252 290 5,800 -667 Descending FlightAware ADS-B
Sun 03:47:57 PM -23.4530 -46.6810 128° Southeast 242 278 5,600 -1,067 Descending FlightAware ADS-B
Sun 03:48:27 PM -23.4670 -46.6480 115° Southeast 233 268 5,000 -1,200 Descending FlightAware ADS-B
Sun 03:48:47 PM -23.4740 -46.6250 108° East 228 262 4,600 -900 Descending FlightAware ADS-B
Sun 03:49:07 PM -23.4700 -46.6030 79° East 231 266 4,400 -1,067 Descending FlightAware ADS-B
Sun 03:49:32 PM -23.4630 -46.5750 75° East 216 249 3,800 -1,091 Descending FlightAware ADS-B
Sun 03:50:02 PM -23.4550 -46.5470 73° East 173 199 3,400 -800 Descending FlightAware ADS-B
Sun 03:50:17 PM -23.4520 -46.5350 75° East 157 181 3,200 -750 Descending FlightAware ADS-B
Sun 03:50:42 PM -23.4470 -46.5180 72° East 146 168 2,900 -750 Descending FlightAware ADS-B
Sun 03:50:57 PM -23.4440 -46.5070 73° East 143 165 2,700 -800 Descending FlightAware ADS-B
Sun 03:51:27 PM -23.4380 -46.4850 73° East 145 167 2,300 -800 Descending FlightAware ADS-B

Login

Don't have an account? Register now (free) for customized features, flight alerts, and more!